Time;durP1;ratioP1;P1;durP2;ratioP2;P2;SDS_P1;SDS_P2;PMS_P1;PMS_P2;Temp;Humidity;BMP_temperature;BMP_pressure;BME280_temperature;BME280_humidity;BME280_pressure;Samples;Min_cycle;Max_cycle;Signal;HPM_P1;HPM_P2
2022/09/10 00:00:54;;;;;;;2.17;1.80;;;15.30;99.90;;;;;;5018868;28;20852;-81
2022/09/10 00:03:21;;;;;;;2.10;1.77;;;15.30;99.90;;;;;;5018114;28;20454;-80
2022/09/10 00:05:48;;;;;;;1.63;1.50;;;15.20;99.90;;;;;;5019365;28;20454;-79
2022/09/10 00:08:15;;;;;;;1.63;1.53;;;15.20;99.90;;;;;;5018375;28;20452;-81
2022/09/10 00:10:45;;;;;;;2.43;1.03;;;15.20;99.90;;;;;;5018901;28;20465;-81
2022/09/10 00:13:13;;;;;;;2.47;1.37;;;15.30;99.90;;;;;;5018833;28;20494;-81
2022/09/10 00:15:41;;;;;;;3.23;1.60;;;15.20;99.90;;;;;;5018826;28;20450;-80
2022/09/10 00:18:09;;;;;;;1.57;1.30;;;15.30;99.90;;;;;;5017741;28;20440;-80
2022/09/10 00:20:36;;;;;;;1.70;1.20;;;15.30;99.90;;;;;;5018242;28;20467;-80
2022/09/10 00:23:02;;;;;;;1.40;1.30;;;15.30;99.90;;;;;;5018882;28;20842;-81
2022/09/10 00:25:31;;;;;;;3.00;1.43;;;15.30;99.90;;;;;;5018731;28;20462;-80
2022/09/10 00:27:59;;;;;;;1.33;1.03;;;15.30;99.90;;;;;;5017673;28;20485;-79
2022/09/10 00:30:26;;;;;;;1.47;1.37;;;15.30;99.90;;;;;;5018919;28;20512;-79
2022/09/10 00:32:53;;;;;;;1.77;1.33;;;15.20;99.90;;;;;;5019245;28;20600;-81
2022/09/10 00:35:21;;;;;;;1.80;1.40;;;15.30;99.90;;;;;;5018735;28;20831;-80
2022/09/10 00:37:47;;;;;;;1.57;1.47;;;15.20;99.90;;;;;;5018491;28;20454;-81
2022/09/10 00:40:15;;;;;;;1.60;1.40;;;15.20;99.90;;;;;;5018426;28;20524;-79
2022/09/10 00:42:43;;;;;;;1.10;1.10;;;15.20;99.90;;;;;;5017910;28;20490;-81
2022/09/10 00:45:17;;;;;;;2.93;1.67;;;15.20;99.90;;;;;;5017950;28;20515;-80
2022/09/10 00:47:45;;;;;;;1.90;0.97;;;15.20;99.90;;;;;;5015814;28;20482;-80
2022/09/10 00:50:17;;;;;;;1.87;1.67;;;15.20;99.90;;;;;;5015108;28;20842;-80
2022/09/10 00:52:46;;;;;;;1.30;1.20;;;15.30;99.90;;;;;;5015465;28;20483;-81
2022/09/10 00:55:14;;;;;;;1.53;1.43;;;15.30;99.90;;;;;;5014705;28;20457;-80
2022/09/10 00:57:42;;;;;;;1.30;1.20;;;15.20;99.90;;;;;;5015428;28;20452;-80
2022/09/10 01:00:12;;;;;;;1.70;1.30;;;15.20;99.90;;;;;;5016794;28;20486;-80
2022/09/10 01:02:40;;;;;;;1.37;1.27;;;15.30;99.90;;;;;;5015338;28;20475;-80
2022/09/10 01:05:09;;;;;;;2.60;1.70;;;15.30;99.90;;;;;;5015568;28;20959;-80
2022/09/10 01:07:36;;;;;;;1.50;1.40;;;15.30;99.90;;;;;;5015560;28;20458;-79
2022/09/10 01:10:06;;;;;;;1.40;1.30;;;15.30;99.90;;;;;;5016464;28;20470;-79
2022/09/10 01:12:51;;;;;;;1.80;1.70;;;15.20;99.90;;;;;;5017101;28;20995;-80
2022/09/10 01:15:29;;;;;;;2.80;2.13;;;15.30;99.90;;;;;;5017727;28;20571;-80
2022/09/10 01:18:10;;;;;;;1.37;1.10;;;15.30;99.90;;;;;;5017099;28;20454;-80
2022/09/10 01:20:51;;;;;;;1.90;1.47;;;15.30;99.90;;;;;;5016303;28;20898;-80
2022/09/10 01:23:56;;;;;;;3.43;1.47;;;15.30;99.90;;;;;;5019406;28;20457;-81
2022/09/10 01:26:35;;;;;;;1.40;1.30;;;15.30;99.90;;;;;;5022619;28;20450;-80
2022/09/10 01:29:09;;;;;;;1.40;1.30;;;15.30;99.90;;;;;;5021632;28;20451;-81
2022/09/10 01:31:42;;;;;;;1.63;1.53;;;15.30;99.90;;;;;;5021802;28;20470;-79
2022/09/10 01:34:16;;;;;;;1.60;1.50;;;15.30;99.90;;;;;;5021821;28;20457;-81
2022/09/10 01:36:47;;;;;;;1.33;1.23;;;15.30;99.90;;;;;;5021802;28;20452;-81
2022/09/10 01:39:15;;;;;;;1.33;1.20;;;15.30;99.90;;;;;;5022178;28;20556;-79
2022/09/10 01:41:42;;;;;;;1.90;1.80;;;15.30;99.90;;;;;;5022028;28;20912;-80
2022/09/10 01:44:31;;;;;;;2.43;0.90;;;15.20;99.90;;;;;;5021183;28;20455;-81
2022/09/10 01:47:10;;;;;;;1.50;1.40;;;15.30;99.90;;;;;;5021268;28;20963;-80
2022/09/10 01:49:44;;;;;;;2.30;2.10;;;15.20;99.90;;;;;;5022201;28;20470;-81
2022/09/10 01:52:21;;;;;;;1.80;1.50;;;15.20;99.90;;;;;;5022415;28;20474;-79
2022/09/10 01:55:07;;;;;;;1.40;1.40;;;15.20;99.90;;;;;;5020075;28;20493;-79
2022/09/10 01:57:46;;;;;;;2.10;1.90;;;15.20;99.90;;;;;;5020162;28;20449;-79
2022/09/10 02:00:18;;;;;;;1.40;1.30;;;15.20;99.90;;;;;;5019777;28;20490;-80
2022/09/10 02:02:49;;;;;;;1.53;1.43;;;15.20;99.90;;;;;;5001730;28;21018;-79
2022/09/10 02:05:19;;;;;;;0.97;0.90;;;15.10;99.90;;;;;;5009856;28;20447;-80
2022/09/10 02:07:48;;;;;;;2.10;1.50;;;15.10;99.90;;;;;;5020754;28;20466;-80
2022/09/10 02:10:15;;;;;;;1.73;1.10;;;15.10;99.90;;;;;;5020912;28;20452;-79
2022/09/10 02:12:42;;;;;;;2.50;1.80;;;15.10;99.90;;;;;;5021987;28;20843;-80
2022/09/10 02:15:10;;;;;;;2.00;1.30;;;15.10;99.90;;;;;;5021071;28;20452;-79
2022/09/10 02:17:39;;;;;;;1.17;1.07;;;15.10;99.90;;;;;;5020715;28;20501;-79
2022/09/10 02:20:10;;;;;;;1.77;1.10;;;15.00;99.90;;;;;;5020682;28;20506;-80
2022/09/10 02:22:38;;;;;;;4.47;1.63;;;15.00;99.90;;;;;;5021343;28;20538;-80
2022/09/10 02:25:06;;;;;;;1.70;1.30;;;15.00;99.90;;;;;;5021329;28;20460;-79
2022/09/10 02:27:33;;;;;;;1.40;1.03;;;15.10;99.90;;;;;;5021089;28;20455;-79
2022/09/10 02:30:00;;;;;;;4.57;2.37;;;15.10;99.90;;;;;;5021973;28;20478;-81
2022/09/10 02:32:27;;;;;;;4.63;1.63;;;15.10;99.90;;;;;;5021903;28;20481;-81
2022/09/10 02:34:55;;;;;;;1.50;1.40;;;15.00;99.90;;;;;;5021036;28;20459;-81
2022/09/10 02:37:23;;;;;;;1.37;1.10;;;15.10;99.90;;;;;;5021272;28;20463;-81
2022/09/10 02:39:49;;;;;;;2.00;1.50;;;15.00;99.90;;;;;;5021110;28;20513;-80
2022/09/10 02:42:16;;;;;;;2.67;1.57;;;15.00;99.90;;;;;;5021136;28;20471;-81
2022/09/10 02:44:43;;;;;;;2.97;1.73;;;15.10;99.90;;;;;;5020518;28;20454;-81
2022/09/10 02:47:10;;;;;;;0.80;0.80;;;15.00;99.90;;;;;;5021107;28;20457;-81
2022/09/10 02:49:37;;;;;;;3.00;1.37;;;15.10;99.90;;;;;;5020230;28;20846;-81
2022/09/10 02:52:06;;;;;;;1.57;1.47;;;15.10;99.90;;;;;;5020434;28;20470;-80
2022/09/10 02:54:32;;;;;;;1.50;1.40;;;15.00;99.90;;;;;;5020933;28;20454;-80
2022/09/10 02:56:59;;;;;;;1.60;1.43;;;15.00;99.90;;;;;;5020943;28;20453;-81
2022/09/10 02:59:26;;;;;;;1.63;1.53;;;15.00;99.90;;;;;;5019970;28;20572;-80
2022/09/10 03:01:54;;;;;;;1.63;1.53;;;14.90;99.90;;;;;;5019755;28;20469;-80
2022/09/10 03:04:21;;;;;;;3.83;1.70;;;15.00;99.90;;;;;;5020336;28;20828;-80
2022/09/10 03:06:48;;;;;;;2.13;1.33;;;14.90;99.90;;;;;;5020510;28;20454;-80
2022/09/10 03:09:16;;;;;;;3.07;1.87;;;15.00;99.90;;;;;;5020261;28;20456;-79
2022/09/10 03:11:43;;;;;;;1.70;1.60;;;14.90;99.90;;;;;;5020517;28;20466;-79
2022/09/10 03:14:11;;;;;;;1.43;1.30;;;14.90;99.90;;;;;;5020208;28;20814;-80
2022/09/10 03:16:38;;;;;;;2.60;1.60;;;14.90;99.90;;;;;;5019699;28;20466;-79
2022/09/10 03:19:05;;;;;;;2.20;1.87;;;14.80;99.90;;;;;;5019721;28;20456;-80
2022/09/10 03:21:33;;;;;;;2.90;1.50;;;14.80;99.90;;;;;;5020138;28;20471;-80
2022/09/10 03:24:00;;;;;;;2.33;1.20;;;14.80;99.90;;;;;;5019627;28;20462;-80
2022/09/10 03:26:28;;;;;;;1.73;1.63;;;14.90;99.90;;;;;;5020117;28;21155;-79
2022/09/10 03:28:54;;;;;;;2.33;1.80;;;14.90;99.90;;;;;;5019565;28;20459;-79
2022/09/10 03:31:21;;;;;;;1.47;1.37;;;14.90;99.90;;;;;;5019516;28;20832;-79
2022/09/10 03:33:48;;;;;;;1.57;1.47;;;14.90;99.90;;;;;;5018985;28;20450;-79
2022/09/10 03:36:16;;;;;;;2.20;2.00;;;14.90;99.90;;;;;;5020097;28;20454;-79
2022/09/10 03:38:43;;;;;;;7.07;2.77;;;14.90;99.90;;;;;;5019732;28;20497;-78
2022/09/10 03:41:11;;;;;;;2.17;1.97;;;15.00;99.90;;;;;;5019287;28;20517;-79
2022/09/10 03:43:39;;;;;;;2.23;1.97;;;15.00;99.90;;;;;;5019527;28;20883;-79
2022/09/10 03:46:06;;;;;;;2.17;1.87;;;15.00;99.90;;;;;;4999664;28;20462;-80
2022/09/10 03:48:33;;;;;;;3.07;2.77;;;15.00;99.90;;;;;;5000373;28;20466;-79
2022/09/10 03:51:00;;;;;;;3.10;2.80;;;15.10;99.90;;;;;;5000699;28;20495;-79
2022/09/10 03:53:26;;;;;;;2.50;2.10;;;15.00;99.90;;;;;;4999543;28;20456;-80
2022/09/10 03:55:54;;;;;;;1.97;1.83;;;15.00;99.90;;;;;;5018256;28;20462;-80
2022/09/10 03:58:21;;;;;;;2.20;2.00;;;14.90;99.90;;;;;;5018852;28;20551;-80
2022/09/10 04:00:50;;;;;;;1.70;1.43;;;14.90;99.90;;;;;;5018954;28;20482;-80
2022/09/10 04:03:19;;;;;;;1.30;1.20;;;14.80;99.90;;;;;;5019595;28;20469;-79
2022/09/10 04:05:46;;;;;;;1.90;1.53;;;14.80;99.90;;;;;;5018959;28;20457;-80
2022/09/10 04:08:13;;;;;;;4.50;1.83;;;14.90;99.90;;;;;;5018092;28;20448;-80
2022/09/10 04:10:41;;;;;;;1.53;1.43;;;14.80;99.90;;;;;;5019400;28;20450;-80
2022/09/10 04:13:08;;;;;;;5.37;1.50;;;14.80;99.90;;;;;;5018616;28;20461;-80
2022/09/10 04:15:36;;;;;;;2.00;1.63;;;14.70;99.90;;;;;;5018973;28;20453;-80
2022/09/10 04:18:04;;;;;;;3.80;1.47;;;14.80;99.90;;;;;;5018060;28;20460;-79
2022/09/10 04:20:32;;;;;;;1.73;1.63;;;14.70;99.90;;;;;;5018875;28;20489;-80
2022/09/10 04:22:59;;;;;;;2.07;1.77;;;14.80;99.90;;;;;;5018673;28;20456;-79
2022/09/10 04:25:26;;;;;;;4.00;1.53;;;14.80;99.90;;;;;;5018584;28;20459;-80
2022/09/10 04:27:53;;;;;;;2.03;1.93;;;14.70;99.90;;;;;;5018439;28;20463;-79
2022/09/10 04:30:20;;;;;;;1.77;1.13;;;14.70;99.90;;;;;;5018969;28;20526;-79
2022/09/10 04:32:46;;;;;;;1.70;1.60;;;14.70;99.90;;;;;;5018221;28;20472;-79
2022/09/10 04:35:15;;;;;;;2.77;1.67;;;14.70;99.90;;;;;;5017824;28;20446;-79
2022/09/10 04:37:42;;;;;;;1.90;1.80;;;14.70;99.90;;;;;;5018530;28;20829;-80
2022/09/10 04:40:10;;;;;;;1.40;1.30;;;14.70;99.90;;;;;;5018456;28;20547;-79
2022/09/10 04:42:37;;;;;;;2.30;1.30;;;14.60;99.90;;;;;;5018207;28;20487;-80
2022/09/10 04:45:04;;;;;;;1.50;1.40;;;14.70;99.90;;;;;;5018010;28;20852;-80
2022/09/10 04:47:31;;;;;;;1.23;1.13;;;14.70;99.90;;;;;;5018094;28;20451;-78
2022/09/10 04:49:58;;;;;;;3.80;1.40;;;14.80;99.90;;;;;;5018251;28;20457;-80
2022/09/10 04:52:26;;;;;;;1.73;1.63;;;14.80;99.90;;;;;;5018424;28;20471;-79
2022/09/10 04:54:53;;;;;;;2.03;1.93;;;14.80;99.90;;;;;;5018153;28;20455;-79
2022/09/10 04:57:20;;;;;;;1.43;1.33;;;14.80;99.90;;;;;;5017709;28;20466;-80
2022/09/10 04:59:47;;;;;;;1.63;1.53;;;14.70;99.90;;;;;;5018295;28;20460;-79
2022/09/10 05:02:14;;;;;;;1.60;1.50;;;14.70;99.90;;;;;;5018222;28;20474;-80
2022/09/10 05:04:41;;;;;;;2.67;1.50;;;14.70;99.90;;;;;;5017899;28;20818;-80
2022/09/10 05:07:07;;;;;;;2.60;1.60;;;14.60;99.90;;;;;;5018235;28;20455;-79
2022/09/10 05:09:35;;;;;;;1.30;1.20;;;14.60;99.90;;;;;;5017584;28;20454;-80
2022/09/10 05:12:03;;;;;;;4.97;1.60;;;14.60;99.90;;;;;;5017837;28;20481;-80
2022/09/10 05:14:30;;;;;;;0.90;0.73;;;14.70;99.90;;;;;;5019014;28;20458;-80
2022/09/10 05:16:57;;;;;;;1.80;1.13;;;14.70;99.90;;;;;;5017826;28;20455;-80
2022/09/10 05:19:23;;;;;;;3.27;1.30;;;14.70;99.90;;;;;;5017610;28;20450;-78
2022/09/10 05:21:50;;;;;;;2.00;1.23;;;14.70;99.90;;;;;;5017727;28;20486;-80
2022/09/10 05:24:17;;;;;;;0.80;0.80;;;14.80;99.90;;;;;;5017588;28;20455;-80
2022/09/10 05:26:45;;;;;;;1.50;1.40;;;14.80;99.90;;;;;;5016759;28;20456;-80
2022/09/10 05:29:12;;;;;;;1.13;1.07;;;14.80;99.90;;;;;;5017325;28;20446;-81
2022/09/10 05:31:40;;;;;;;1.73;1.07;;;14.90;99.90;;;;;;5017447;28;20571;-80
2022/09/10 05:34:07;;;;;;;1.70;1.60;;;14.80;99.90;;;;;;5017201;28;20447;-79
2022/09/10 05:36:34;;;;;;;2.20;1.27;;;14.80;99.90;;;;;;5016987;28;20497;-79
2022/09/10 05:39:03;;;;;;;1.30;1.20;;;14.90;99.90;;;;;;5016765;28;20481;-80
2022/09/10 05:41:30;;;;;;;2.73;1.40;;;14.90;99.90;;;;;;5031747;23;21087;-78
2022/09/10 05:43:59;;;;;;;1.63;1.53;;;14.90;99.90;;;;;;5016173;28;20477;-79
2022/09/10 05:46:27;;;;;;;1.50;1.40;;;15.00;99.90;;;;;;5019027;28;20434;-78
2022/09/10 05:48:54;;;;;;;1.27;1.17;;;15.00;99.90;;;;;;5020357;28;20458;-79
2022/09/10 05:51:21;;;;;;;1.47;1.40;;;15.00;99.90;;;;;;5019359;28;20465;-79
2022/09/10 05:53:48;;;;;;;1.33;1.27;;;15.10;99.90;;;;;;5035907;28;20460;-79
2022/09/10 05:56:15;;;;;;;1.33;1.30;;;15.10;99.90;;;;;;5035422;28;20908;-79
2022/09/10 05:58:44;;;;;;;1.40;1.30;;;15.10;99.90;;;;;;5034880;28;20453;-79
2022/09/10 06:01:12;;;;;;;1.57;1.47;;;15.10;99.90;;;;;;5035328;28;20482;-79
2022/09/10 06:03:39;;;;;;;1.50;1.37;;;15.10;99.90;;;;;;5035015;28;20462;-79
2022/09/10 06:06:06;;;;;;;1.60;1.50;;;15.20;99.90;;;;;;5035624;28;20497;-79
2022/09/10 06:08:34;;;;;;;1.87;1.50;;;15.20;99.90;;;;;;5034998;28;20476;-79
2022/09/10 06:11:04;;;;;;;1.23;1.03;;;15.10;99.90;;;;;;5038751;28;20791;-79
2022/09/10 06:13:32;;;;;;;1.37;1.13;;;15.20;99.90;;;;;;5038676;28;20745;-79
2022/09/10 06:15:59;;;;;;;2.00;1.50;;;15.10;99.90;;;;;;5038304;28;20451;-79
2022/09/10 06:18:28;;;;;;;2.33;1.10;;;15.20;99.90;;;;;;5038027;28;20459;-78
2022/09/10 06:21:02;;;;;;;3.50;1.10;;;15.10;99.90;;;;;;5038679;28;20493;-79
2022/09/10 06:23:30;;;;;;;1.30;1.20;;;15.00;99.90;;;;;;5037953;28;20451;-78
2022/09/10 06:26:03;;;;;;;1.37;1.27;;;15.00;99.90;;;;;;5038006;28;20445;-78
2022/09/10 06:28:31;;;;;;;6.10;1.53;;;15.00;99.90;;;;;;5037506;28;21008;-79
2022/09/10 06:30:58;;;;;;;1.17;1.07;;;15.10;99.90;;;;;;5037863;28;20448;-78
2022/09/10 06:33:24;;;;;;;1.53;1.43;;;15.00;99.90;;;;;;5037806;28;20453;-79
2022/09/10 06:35:57;;;;;;;2.40;1.80;;;15.00;99.90;;;;;;5038442;28;20456;-79
2022/09/10 06:38:25;;;;;;;4.50;1.73;;;15.10;99.90;;;;;;5037111;28;20445;-79
2022/09/10 06:40:53;;;;;;;1.90;0.97;;;15.00;99.90;;;;;;5040155;28;20475;-79
2022/09/10 06:43:22;;;;;;;1.50;1.07;;;15.00;99.90;;;;;;5044555;28;20489;-79
2022/09/10 06:45:49;;;;;;;1.47;1.27;;;15.10;99.90;;;;;;5038401;28;20457;-79
2022/09/10 06:48:17;;;;;;;1.73;0.90;;;15.20;99.90;;;;;;5039325;28;20859;-79
2022/09/10 06:50:52;;;;;;;1.13;1.03;;;15.10;99.90;;;;;;5038477;28;20595;-79
2022/09/10 06:53:21;;;;;;;1.63;1.20;;;15.20;99.90;;;;;;5039585;28;20476;-79
2022/09/10 06:55:49;;;;;;;0.97;0.97;;;15.20;99.90;;;;;;5038855;28;20450;-79
2022/09/10 06:58:16;;;;;;;1.20;1.20;;;15.30;99.90;;;;;;5039810;28;20456;-79
2022/09/10 07:00:44;;;;;;;1.43;1.33;;;15.40;99.90;;;;;;5039098;28;20479;-79
2022/09/10 07:03:10;;;;;;;1.30;1.30;;;15.40;99.90;;;;;;5039258;28;20604;-79
2022/09/10 07:05:37;;;;;;;1.40;1.20;;;15.50;99.90;;;;;;5039144;28;20453;-79
2022/09/10 07:08:05;;;;;;;3.10;0.93;;;15.60;99.90;;;;;;5039000;28;20461;-79
2022/09/10 07:10:33;;;;;;;5.13;1.10;;;15.70;99.90;;;;;;5040133;28;20459;-79
2022/09/10 07:13:00;;;;;;;0.70;0.70;;;15.70;99.90;;;;;;5039351;28;20475;-79
2022/09/10 07:15:27;;;;;;;2.80;1.57;;;15.70;99.90;;;;;;5038947;28;20477;-79
2022/09/10 07:17:54;;;;;;;0.83;0.63;;;15.80;99.90;;;;;;5038431;28;20450;-79
2022/09/10 07:20:24;;;;;;;0.70;0.70;;;15.80;99.90;;;;;;5038336;28;20826;-79
2022/09/10 07:22:52;;;;;;;0.90;0.90;;;15.90;99.90;;;;;;5039660;28;20477;-79
2022/09/10 07:25:19;;;;;;;1.20;1.10;;;16.00;99.90;;;;;;5038645;28;20447;-79
2022/09/10 07:27:47;;;;;;;1.33;1.23;;;16.10;99.90;;;;;;5038272;28;20458;-79
2022/09/10 07:30:14;;;;;;;1.07;0.80;;;16.00;99.90;;;;;;5038648;28;20947;-79
2022/09/10 07:32:41;;;;;;;1.50;0.80;;;16.00;99.90;;;;;;5038810;28;20475;-79
2022/09/10 07:35:09;;;;;;;1.20;1.10;;;16.00;99.90;;;;;;5030652;28;20825;-79
2022/09/10 07:37:38;;;;;;;0.80;0.80;;;16.10;99.90;;;;;;5030976;28;21010;-79
2022/09/10 07:40:05;;;;;;;1.60;1.27;;;16.10;99.90;;;;;;5026288;28;20455;-79
2022/09/10 07:42:32;;;;;;;3.47;1.00;;;16.10;99.90;;;;;;5029088;28;20489;-80
2022/09/10 07:45:00;;;;;;;1.27;0.80;;;16.20;99.90;;;;;;5028729;28;20458;-79
2022/09/10 07:47:27;;;;;;;1.03;1.00;;;16.30;99.90;;;;;;5028400;28;20447;-79
2022/09/10 07:49:53;;;;;;;2.10;1.23;;;16.40;99.90;;;;;;5028950;28;20444;-79
2022/09/10 07:52:20;;;;;;;1.17;1.07;;;16.40;99.90;;;;;;5027829;28;20476;-79
2022/09/10 07:54:47;;;;;;;1.93;1.70;;;16.40;99.90;;;;;;5026909;28;20955;-79
2022/09/10 07:57:13;;;;;;;1.33;1.23;;;16.50;99.90;;;;;;5027451;28;20456;-79
2022/09/10 07:59:40;;;;;;;1.33;0.87;;;16.40;99.90;;;;;;5026193;28;20455;-79
2022/09/10 08:02:09;;;;;;;0.80;0.80;;;16.40;99.90;;;;;;5027358;28;20856;-79
2022/09/10 08:04:36;;;;;;;0.90;0.90;;;16.40;99.90;;;;;;5027561;28;20490;-79
2022/09/10 08:07:03;;;;;;;1.10;1.10;;;16.30;99.90;;;;;;5027324;28;20470;-79
2022/09/10 08:09:29;;;;;;;0.80;0.80;;;16.20;99.90;;;;;;5026988;28;20828;-79
2022/09/10 08:11:56;;;;;;;0.93;0.73;;;16.30;99.90;;;;;;5027749;28;20469;-79
2022/09/10 08:14:24;;;;;;;1.27;1.13;;;16.30;99.90;;;;;;5026468;28;20504;-79
2022/09/10 08:16:51;;;;;;;1.43;1.33;;;16.30;99.90;;;;;;5024559;28;20446;-78
2022/09/10 08:19:19;;;;;;;0.87;0.87;;;16.20;99.90;;;;;;5031949;28;20504;-79
2022/09/10 08:21:46;;;;;;;1.10;1.00;;;16.30;99.90;;;;;;5032787;28;20498;-79
2022/09/10 08:24:13;;;;;;;0.80;0.80;;;16.20;99.90;;;;;;5032148;28;20534;-79
2022/09/10 08:26:40;;;;;;;1.33;0.77;;;16.30;99.90;;;;;;5032875;28;20446;-78
2022/09/10 08:29:06;;;;;;;1.03;0.93;;;16.40;99.90;;;;;;5032705;28;20446;-78
2022/09/10 08:31:33;;;;;;;0.70;0.60;;;16.50;99.90;;;;;;5035295;28;20474;-79
2022/09/10 08:34:00;;;;;;;1.90;1.10;;;16.50;99.90;;;;;;5031920;28;20454;-78
2022/09/10 08:36:28;;;;;;;1.17;0.60;;;16.50;99.90;;;;;;5032575;28;20454;-78
2022/09/10 08:38:55;;;;;;;1.33;0.90;;;16.60;99.90;;;;;;5032324;28;20646;-79
2022/09/10 08:41:30;;;;;;;1.00;1.00;;;16.70;99.90;;;;;;5032229;28;20881;-79
2022/09/10 08:43:59;;;;;;;2.67;0.70;;;16.80;99.90;;;;;;5032638;28;20457;-79
2022/09/10 08:46:29;;;;;;;1.80;0.90;;;16.90;99.90;;;;;;5032705;28;20460;-79
2022/09/10 08:49:07;;;;;;;2.20;1.37;;;17.00;99.90;;;;;;5032590;28;20459;-79
2022/09/10 08:51:41;;;;;;;0.63;0.53;;;17.10;99.90;;;;;;5032398;28;20478;-79
2022/09/10 08:54:13;;;;;;;0.80;0.80;;;17.20;99.90;;;;;;5031962;28;20462;-78
2022/09/10 08:56:41;;;;;;;0.97;0.97;;;17.30;99.90;;;;;;5032416;28;20448;-78
2022/09/10 08:59:19;;;;;;;1.27;0.80;;;17.50;99.90;;;;;;5032472;28;20457;-80
2022/09/10 09:01:51;;;;;;;0.77;0.77;;;17.50;99.90;;;;;;5033870;28;20778;-80
2022/09/10 09:04:25;;;;;;;2.87;0.80;;;17.70;99.90;;;;;;5035934;28;20460;-80
2022/09/10 09:07:00;;;;;;;2.10;0.90;;;17.70;99.90;;;;;;5034554;28;20458;-79
2022/09/10 09:09:26;;;;;;;0.73;0.63;;;17.80;99.90;;;;;;5031735;28;20987;-79
2022/09/10 09:12:02;;;;;;;2.63;0.80;;;17.80;99.90;;;;;;5032066;28;20474;-79
2022/09/10 09:14:50;;;;;;;1.90;1.00;;;17.80;99.90;;;;;;5030538;28;20475;-80
2022/09/10 09:17:47;;;;;;;1.53;1.03;;;17.90;99.90;;;;;;5033436;28;20448;-80
2022/09/10 09:20:17;;;;;;;2.10;1.20;;;18.10;99.90;;;;;;5035675;28;20448;-81
2022/09/10 09:22:51;;;;;;;1.80;1.00;;;18.20;99.90;;;;;;5035230;28;20487;-80
2022/09/10 09:25:27;;;;;;;1.57;0.90;;;18.30;99.90;;;;;;5043175;28;20448;-81
2022/09/10 09:27:55;;;;;;;0.87;0.80;;;18.30;99.90;;;;;;5036524;28;20827;-81
2022/09/10 09:30:25;;;;;;;0.80;0.80;;;18.20;99.90;;;;;;5037520;28;20872;-81
2022/09/10 09:32:53;;;;;;;3.03;0.73;;;18.20;99.90;;;;;;5038133;28;20472;-81
2022/09/10 09:35:27;;;;;;;1.23;0.67;;;18.30;99.90;;;;;;5039102;28;20456;-82
2022/09/10 09:38:08;;;;;;;0.97;0.97;;;18.40;99.90;;;;;;5038675;28;20467;-82
2022/09/10 09:40:43;;;;;;;1.10;1.10;;;18.30;99.90;;;;;;5038979;28;20464;-81
2022/09/10 09:43:22;;;;;;;1.03;0.93;;;18.30;99.90;;;;;;5039808;28;20522;-82
2022/09/10 09:45:52;;;;;;;0.50;0.50;;;18.30;99.90;;;;;;5043847;28;20480;-82
2022/09/10 09:48:21;;;;;;;0.70;0.70;;;18.40;99.90;;;;;;5044656;28;20496;-81
2022/09/10 09:50:50;;;;;;;2.53;1.03;;;18.50;99.90;;;;;;5044376;28;20455;-82
2022/09/10 09:53:22;;;;;;;1.20;0.70;;;18.50;99.90;;;;;;5045587;28;20484;-81
2022/09/10 09:55:53;;;;;;;1.73;0.60;;;18.70;99.90;;;;;;5045561;28;20452;-82
2022/09/10 09:58:47;;;;;;;0.97;0.97;;;18.50;99.90;;;;;;5046625;28;20482;-81
2022/09/10 10:01:18;;;;;;;1.80;1.27;;;18.60;99.90;;;;;;5028220;28;20525;-82
2022/09/10 10:03:50;;;;;;;1.80;1.03;;;18.70;99.90;;;;;;5045931;28;20453;-81
2022/09/10 10:06:19;;;;;;;1.50;1.40;;;18.80;99.90;;;;;;5044471;28;20945;-81
2022/09/10 10:08:57;;;;;;;1.53;1.00;;;18.70;99.90;;;;;;5045624;28;20460;-80
2022/09/10 10:11:49;;;;;;;2.37;0.80;;;18.80;99.90;;;;;;5039900;28;20472;-81
2022/09/10 10:14:38;;;;;;;1.00;0.70;;;18.80;99.90;;;;;;5045759;28;20479;-81
2022/09/10 10:17:28;;;;;;;2.17;1.00;;;19.00;99.90;;;;;;5041815;28;20453;-82
2022/09/10 10:20:01;;;;;;;1.63;0.70;;;19.30;99.90;;;;;;5045958;28;20446;-82
2022/09/10 10:22:30;;;;;;;1.17;0.80;;;19.30;99.90;;;;;;5046015;28;20493;-82
2022/09/10 10:25:00;;;;;;;2.90;0.70;;;19.40;99.90;;;;;;5044490;28;20506;-81
2022/09/10 10:27:31;;;;;;;0.80;0.80;;;19.30;99.90;;;;;;5044213;28;20441;-81
2022/09/10 10:30:01;;;;;;;1.00;0.83;;;19.30;99.90;;;;;;5044952;28;20448;-82
2022/09/10 10:32:43;;;;;;;1.30;0.83;;;19.20;99.90;;;;;;5044761;28;20985;-82
2022/09/10 10:35:38;;;;;;;1.67;0.80;;;19.30;99.90;;;;;;5044412;28;20954;-81
2022/09/10 10:38:27;;;;;;;0.80;0.70;;;19.30;99.90;;;;;;5045378;28;20487;-81
2022/09/10 10:41:13;;;;;;;3.83;1.43;;;19.30;99.90;;;;;;5044397;28;20827;-79
2022/09/10 10:43:50;;;;;;;1.90;1.10;;;19.30;99.90;;;;;;5044619;28;20449;-81
2022/09/10 10:46:20;;;;;;;0.90;0.73;;;19.40;99.90;;;;;;5044493;28;20448;-81
2022/09/10 10:48:59;;;;;;;2.33;0.93;;;19.40;99.90;;;;;;5045144;28;20449;-81
2022/09/10 10:51:37;;;;;;;1.23;0.97;;;19.50;99.90;;;;;;5045113;28;20481;-81
2022/09/10 10:54:24;;;;;;;0.50;0.50;;;19.60;99.90;;;;;;5044916;28;20452;-81
2022/09/10 10:57:08;;;;;;;2.23;0.87;;;19.70;99.90;;;;;;5046136;28;20521;-84
2022/09/10 10:59:54;;;;;;;3.50;0.70;;;19.80;99.90;;;;;;5049612;28;20521;-81
2022/09/10 11:02:32;;;;;;;0.93;0.40;;;20.00;99.40;;;;;;5049416;28;20484;-79
2022/09/10 11:05:05;;;;;;;1.10;1.00;;;19.90;98.60;;;;;;5042189;28;20503;-80
2022/09/10 11:07:38;;;;;;;1.07;0.70;;;19.70;99.40;;;;;;5044108;28;20453;-80
2022/09/10 11:10:14;;;;;;;0.63;0.63;;;19.70;99.20;;;;;;5043059;28;20464;-80
2022/09/10 11:12:48;;;;;;;0.60;0.50;;;19.70;99.00;;;;;;5042198;28;20460;-80
2022/09/10 11:15:27;;;;;;;1.53;1.23;;;19.60;99.10;;;;;;5040116;28;20966;-80
2022/09/10 11:17:58;;;;;;;0.87;0.70;;;19.50;98.60;;;;;;5043370;28;20467;-81
2022/09/10 11:20:29;;;;;;;0.83;0.70;;;19.40;98.40;;;;;;5042368;28;20824;-83
2022/09/10 11:23:03;;;;;;;1.30;0.87;;;19.30;98.90;;;;;;5042359;28;20491;-83
2022/09/10 11:25:36;;;;;;;0.70;0.70;;;19.60;99.80;;;;;;5043045;28;20459;-85
2022/09/10 11:28:13;;;;;;;2.50;0.80;;;20.30;98.60;;;;;;5042547;28;20457;-83
2022/09/10 11:30:44;;;;;;;1.50;0.77;;;20.40;97.00;;;;;;5042579;28;20527;-80
2022/09/10 11:33:17;;;;;;;2.10;0.83;;;20.40;96.60;;;;;;5040670;28;20472;-83
2022/09/10 11:35:51;;;;;;;0.93;0.80;;;20.70;97.10;;;;;;5041945;28;20453;-83
2022/09/10 11:38:23;;;;;;;1.10;1.00;;;21.30;96.50;;;;;;5041306;28;20481;-83
2022/09/10 11:40:55;;;;;;;1.23;0.60;;;21.70;95.10;;;;;;5041641;28;20480;-83
2022/09/10 11:43:33;;;;;;;0.97;0.60;;;22.40;93.00;;;;;;5038686;28;20492;-84
2022/09/10 11:46:04;;;;;;;0.87;0.60;;;22.60;91.30;;;;;;5041068;28;20458;-84
2022/09/10 11:48:37;;;;;;;1.43;0.73;;;22.40;91.10;;;;;;5029083;28;20445;-84
2022/09/10 11:51:11;;;;;;;4.17;1.03;;;22.20;90.80;;;;;;5021763;28;20448;-84
2022/09/10 11:53:39;;;;;;;1.10;0.70;;;21.80;91.10;;;;;;5029549;28;20489;-83
2022/09/10 11:56:22;;;;;;;1.00;0.60;;;21.40;91.60;;;;;;5041994;28;20458;-84
2022/09/10 11:59:01;;;;;;;1.03;0.93;;;21.10;92.00;;;;;;5041001;28;20451;-84
2022/09/10 12:01:48;;;;;;;0.60;0.50;;;21.50;93.30;;;;;;5040442;28;20478;-84
2022/09/10 12:04:37;;;;;;;1.27;0.70;;;21.80;92.30;;;;;;5038774;28;20463;-84
2022/09/10 12:07:13;;;;;;;1.50;1.20;;;21.90;91.60;;;;;;5031759;28;20464;-84
2022/09/10 12:09:48;;;;;;;2.10;0.93;;;22.10;92.00;;;;;;5039713;28;20513;-84
2022/09/10 12:12:21;;;;;;;0.63;0.60;;;22.50;90.80;;;;;;5040860;28;20844;-84
2022/09/10 12:14:49;;;;;;;1.00;1.00;;;22.90;90.10;;;;;;5041416;28;20512;-84
2022/09/10 12:17:23;;;;;;;1.17;0.90;;;23.00;87.30;;;;;;5040331;28;20454;-82
2022/09/10 12:19:53;;;;;;;1.10;0.70;;;22.70;89.80;;;;;;5038287;28;20457;-84
2022/09/10 12:22:25;;;;;;;2.20;0.90;;;22.50;88.10;;;;;;5039988;28;20514;-85
2022/09/10 12:25:17;;;;;;;0.63;0.63;;;22.90;90.00;;;;;;5040468;28;20459;-84
2022/09/10 12:27:55;;;;;;;1.90;0.80;;;23.60;86.60;;;;;;5030059;28;20495;-85
2022/09/10 12:31:01;;;;;;;0.97;0.83;;;24.10;84.40;;;;;;5031247;28;20453;-84
2022/09/10 12:34:06;;;;;;;0.60;0.60;;;24.00;84.70;;;;;;5028758;28;20485;-85
2022/09/10 12:37:15;;;;;;;1.23;1.00;;;24.10;85.30;;;;;;5033587;28;20453;-87
2022/09/10 12:39:44;;;;;;;1.00;0.60;;;24.90;83.70;;;;;;5031558;28;20877;-85
2022/09/10 12:42:33;;;;;;;1.90;1.00;;;24.90;80.80;;;;;;5031144;28;20528;-84
2022/09/10 12:45:00;;;;;;;1.37;0.80;;;24.30;79.30;;;;;;5032461;28;20473;-86
2022/09/10 12:47:51;;;;;;;1.07;1.00;;;23.80;80.80;;;;;;5031034;28;20480;-86
2022/09/10 12:50:37;;;;;;;0.60;0.60;;;23.10;83.00;;;;;;5020508;28;20486;-84
2022/09/10 12:53:36;;;;;;;2.17;0.93;;;22.20;86.00;;;;;;5037682;28;20479;-84
2022/09/10 12:56:37;;;;;;;2.30;0.70;;;21.50;88.00;;;;;;5032008;28;20533;-85
2022/09/10 12:59:30;;;;;;;2.30;0.90;;;21.10;90.00;;;;;;5040572;28;20476;-86
2022/09/10 13:01:57;;;;;;;2.07;0.80;;;20.80;90.50;;;;;;5046775;28;20858;-84
2022/09/10 13:04:28;;;;;;;0.60;0.57;;;20.80;91.30;;;;;;5048753;28;20536;-85
2022/09/10 13:06:58;;;;;;;2.80;0.80;;;20.90;91.30;;;;;;5045404;28;20474;-87
2022/09/10 13:09:28;;;;;;;0.97;0.60;;;21.00;91.20;;;;;;5043491;28;20576;-86